Terminal Aerodrome Forecast
Issued by NWS Blacksburg, VA

Current Version | Previous Version | Text Only | Print | Product List | Glossary Off
Versions: 1 2 3 4 5 6 7 8 9 10 11 12 13 14 15 16 17 18 19 20 21 22 23 24 25 26 27 28 29 30 31 32

631
FTUS41 KRNK 181721
TAFBLF
TAF
KBLF 181721Z 1818/1918 31012G24KT P6SM BKN015
     FM182300 29007G17KT P6SM BKN012
     FM190200 28005KT P6SM SCT012
     FM191400 00000KT P6SM SCT250=

USA.gov is the U.S. government's official web portal to all federal, state and local government web resources and services.